Lagoa da Prata, Brazil
Current Conditions -  °F | °C
As of 7:00 AM on Saturday 29 Nov 2014 (Local Time) from SBPR Reporting Station
Clear Clear  
Wind Chill: 70°   Ceiling: Unl
Heat Index: 70°   Visibility: 6mi
Dew Point: 66°   Wind: 0mph
Humidity: 88%   Direction: NA
Pressure: 30.09"   Gusts: NA
Location:  20.02°S, 45.54°W
Report Text: SBPR 290900Z 00000KT CAVOK 21/19 Q1019
Loading
Personal Weather Stations






























Interactive Weather Map New forecast layout! Learn more

10-Day Weather Forecast

Advertisements
Track Severe Weather on mobile